Time;durP1;ratioP1;P1;durP2;ratioP2;P2;SDS_P1;SDS_P2;PMS_P1;PMS_P2;Temp;Humidity;BMP_temperature;BMP_pressure;BME280_temperature;BME280_humidity;BME280_pressure;Samples;Min_cycle;Max_cycle;Signal;HPM_P1;HPM_P2
2023/08/02 00:00:32;;;;;;;6.97;4.07;;;;;;;;;;5062664;28;20044;-62
2023/08/02 00:02:57;;;;;;;4.93;3.83;;;;;;;;;;5064208;28;20119;-63
2023/08/02 00:05:23;;;;;;;7.20;4.17;;;;;;;;;;5063847;28;20198;-62
2023/08/02 00:07:48;;;;;;;5.10;4.18;;;;;;;;;;5052030;28;20283;-64
2023/08/02 00:10:13;;;;;;;5.20;3.90;;;;;;;;;;5058834;28;20037;-63
2023/08/02 00:12:38;;;;;;;6.13;3.90;;;;;;;;;;5073815;28;20317;-61
2023/08/02 00:15:04;;;;;;;6.93;4.00;;;;;;;;;;5061532;28;20038;-63
2023/08/02 00:17:29;;;;;;;7.20;3.70;;;;;;;;;;5063290;28;20667;-64
2023/08/02 00:19:55;;;;;;;6.97;4.00;;;;;;;;;;5066036;28;20048;-62
2023/08/02 00:22:20;;;;;;;6.73;3.97;;;;;;;;;;5067325;28;20647;-62
2023/08/02 00:24:45;;;;;;;6.27;4.23;;;;;;;;;;5064276;28;20378;-64
2023/08/02 00:27:10;;;;;;;6.47;3.73;;;;;;;;;;5056591;28;20055;-64
2023/08/02 00:29:36;;;;;;;6.57;3.60;;;;;;;;;;5042598;28;20283;-63
2023/08/02 00:32:01;;;;;;;7.13;3.90;;;;;;;;;;5043113;28;20029;-63
2023/08/02 00:34:26;;;;;;;6.03;4.20;;;;;;;;;;5042715;28;20337;-64
2023/08/02 00:36:51;;;;;;;7.03;4.22;;;;;;;;;;5043358;28;20369;-67
2023/08/02 00:39:18;;;;;;;5.03;3.70;;;;;;;;;;5057686;28;20058;-65
2023/08/02 00:41:43;;;;;;;6.70;4.05;;;;;;;;;;5067686;28;20170;-63
2023/08/02 00:44:08;;;;;;;6.40;3.97;;;;;;;;;;5067312;28;20063;-64
2023/08/02 00:46:34;;;;;;;4.80;4.00;;;;;;;;;;5066662;28;20543;-65
2023/08/02 00:48:59;;;;;;;5.97;4.03;;;;;;;;;;5047472;28;20041;-64
2023/08/02 00:51:24;;;;;;;8.20;3.97;;;;;;;;;;5065844;28;20275;-64
2023/08/02 00:53:49;;;;;;;6.00;4.25;;;;;;;;;;5066683;28;20062;-64
2023/08/02 00:56:15;;;;;;;6.50;4.07;;;;;;;;;;5060609;28;20075;-64
2023/08/02 00:58:40;;;;;;;5.55;3.85;;;;;;;;;;5062529;28;20040;-63
2023/08/02 01:01:08;;;;;;;5.75;3.67;;;;;;;;;;5065873;28;20393;-64
2023/08/02 01:03:34;;;;;;;7.18;3.83;;;;;;;;;;5066445;28;20052;-65
2023/08/02 01:06:00;;;;;;;4.65;3.63;;;;;;;;;;5065784;28;20106;-63
2023/08/02 01:08:28;;;;;;;6.30;3.80;;;;;;;;;;5052131;28;20046;-65
2023/08/02 01:11:04;;;;;;;7.20;4.15;;;;;;;;;;5061995;28;20461;-64
2023/08/02 01:13:31;;;;;;;6.32;3.90;;;;;;;;;;5064790;28;20078;-63
2023/08/02 01:15:57;;;;;;;4.72;3.78;;;;;;;;;;5064096;28;20531;-63
2023/08/02 01:18:22;;;;;;;7.07;4.00;;;;;;;;;;5047166;28;20340;-63
2023/08/02 01:20:47;;;;;;;6.67;4.17;;;;;;;;;;5064495;28;20063;-64
2023/08/02 01:23:12;;;;;;;7.57;3.90;;;;;;;;;;5065811;28;20695;-65
2023/08/02 01:25:38;;;;;;;6.20;3.60;;;;;;;;;;5064017;28;20466;-64
2023/08/02 01:28:04;;;;;;;7.83;3.83;;;;;;;;;;5055980;28;20412;-63
2023/08/02 01:30:30;;;;;;;6.35;4.03;;;;;;;;;;5046235;28;20294;-63
2023/08/02 01:32:56;;;;;;;6.90;4.05;;;;;;;;;;5080795;28;20958;-62
2023/08/02 01:35:21;;;;;;;5.25;3.85;;;;;;;;;;5064058;28;20044;-62
2023/08/02 01:37:47;;;;;;;5.80;4.17;;;;;;;;;;5060247;28;20118;-63
2023/08/02 01:40:13;;;;;;;6.20;4.07;;;;;;;;;;5058342;28;20362;-64
2023/08/02 01:42:38;;;;;;;5.60;3.63;;;;;;;;;;5065674;28;20048;-65
2023/08/02 01:45:04;;;;;;;5.27;3.90;;;;;;;;;;5046270;28;20029;-65
2023/08/02 01:47:29;;;;;;;4.55;3.83;;;;;;;;;;5063457;28;20290;-64
2023/08/02 01:49:54;;;;;;;5.88;4.47;;;;;;;;;;5044532;28;20055;-65
2023/08/02 01:52:20;;;;;;;9.13;3.97;;;;;;;;;;5063725;28;20037;-64
2023/08/02 01:54:45;;;;;;;5.87;3.90;;;;;;;;;;5065294;28;20313;-64
2023/08/02 01:57:10;;;;;;;6.23;4.13;;;;;;;;;;5056947;28;20299;-63
2023/08/02 01:59:35;;;;;;;5.03;3.97;;;;;;;;;;5065028;28;20861;-64
2023/08/02 02:02:01;;;;;;;5.63;3.80;;;;;;;;;;5054828;28;20291;-64
2023/08/02 02:04:26;;;;;;;5.50;3.83;;;;;;;;;;5048777;28;20321;-63
2023/08/02 02:06:51;;;;;;;6.53;3.90;;;;;;;;;;5057002;28;20301;-63
2023/08/02 02:09:16;;;;;;;6.30;4.55;;;;;;;;;;5049678;28;20876;-65
2023/08/02 02:11:42;;;;;;;5.93;3.63;;;;;;;;;;5051290;28;20074;-62
2023/08/02 02:14:07;;;;;;;6.20;3.80;;;;;;;;;;5063318;28;20029;-63
2023/08/02 02:16:32;;;;;;;7.10;4.27;;;;;;;;;;5065086;28;20307;-63
2023/08/02 02:18:57;;;;;;;4.87;4.00;;;;;;;;;;5054335;28;20350;-64
2023/08/02 02:21:23;;;;;;;6.70;4.20;;;;;;;;;;5056817;28;20318;-64
2023/08/02 02:23:48;;;;;;;5.60;3.92;;;;;;;;;;5065353;28;20041;-61
2023/08/02 02:26:13;;;;;;;6.00;4.00;;;;;;;;;;5061500;28;20577;-65
2023/08/02 02:28:38;;;;;;;6.13;4.30;;;;;;;;;;5057133;28;20345;-65
2023/08/02 02:31:03;;;;;;;5.43;4.07;;;;;;;;;;5043410;28;20291;-64
2023/08/02 02:33:29;;;;;;;5.60;4.20;;;;;;;;;;5064453;28;20032;-63
2023/08/02 02:35:55;;;;;;;5.57;4.00;;;;;;;;;;5063919;28;20045;-65
2023/08/02 02:38:20;;;;;;;6.35;4.38;;;;;;;;;;5058204;28;20286;-65
2023/08/02 02:40:45;;;;;;;4.70;3.65;;;;;;;;;;5057568;28;20028;-62
2023/08/02 02:43:11;;;;;;;5.40;3.97;;;;;;;;;;5063464;28;20037;-62
2023/08/02 02:45:36;;;;;;;8.50;4.30;;;;;;;;;;5062338;28;20325;-63
2023/08/02 02:48:01;;;;;;;5.47;4.10;;;;;;;;;;5061479;28;20036;-65
2023/08/02 02:50:27;;;;;;;6.10;4.00;;;;;;;;;;5053899;28;20364;-64
2023/08/02 02:52:52;;;;;;;7.15;4.50;;;;;;;;;;5064325;28;20055;-64
2023/08/02 02:55:18;;;;;;;5.87;4.67;;;;;;;;;;5054949;28;20417;-63
2023/08/02 02:57:43;;;;;;;6.67;4.17;;;;;;;;;;5044263;28;20651;-63
2023/08/02 03:00:09;;;;;;;5.72;3.97;;;;;;;;;;5043732;28;20421;-64
2023/08/02 03:02:34;;;;;;;8.98;4.43;;;;;;;;;;5062729;28;20033;-64
2023/08/02 03:04:59;;;;;;;6.20;4.47;;;;;;;;;;5063995;28;20033;-62
2023/08/02 03:07:25;;;;;;;7.13;5.17;;;;;;;;;;5059830;28;20340;-63
2023/08/02 03:09:50;;;;;;;7.33;4.93;;;;;;;;;;5052997;28;21198;-64
2023/08/02 03:12:15;;;;;;;8.03;4.77;;;;;;;;;;5063564;28;20318;-62
2023/08/02 03:14:40;;;;;;;6.57;4.63;;;;;;;;;;5066948;28;20062;-64
2023/08/02 03:17:06;;;;;;;7.45;4.70;;;;;;;;;;5065496;28;20407;-63
2023/08/02 03:19:31;;;;;;;7.50;4.80;;;;;;;;;;5045236;28;20037;-63
2023/08/02 03:21:56;;;;;;;7.57;4.80;;;;;;;;;;5063547;28;20282;-61
2023/08/02 03:24:21;;;;;;;6.27;4.83;;;;;;;;;;5064738;28;20291;-60
2023/08/02 03:26:46;;;;;;;6.90;4.47;;;;;;;;;;5062329;28;20299;-63
2023/08/02 03:29:12;;;;;;;7.63;5.03;;;;;;;;;;5063523;28;20079;-63
2023/08/02 03:31:37;;;;;;;6.30;4.40;;;;;;;;;;5055850;28;20703;-62
2023/08/02 03:34:02;;;;;;;9.00;5.10;;;;;;;;;;5043548;28;20322;-64
2023/08/02 03:36:27;;;;;;;5.87;4.33;;;;;;;;;;5041972;28;20044;-63
2023/08/02 03:38:53;;;;;;;5.63;4.57;;;;;;;;;;5043418;28;20120;-64
2023/08/02 03:41:18;;;;;;;7.57;4.87;;;;;;;;;;5047228;28;20133;-64
2023/08/02 03:43:43;;;;;;;6.18;5.13;;;;;;;;;;5055854;28;20056;-65
2023/08/02 03:46:08;;;;;;;6.53;4.97;;;;;;;;;;5060784;28;20059;-62
2023/08/02 03:48:34;;;;;;;8.70;5.00;;;;;;;;;;5060789;28;20048;-65
2023/08/02 03:50:59;;;;;;;7.22;4.90;;;;;;;;;;5060950;28;20048;-63
2023/08/02 03:53:27;;;;;;;7.73;5.23;;;;;;;;;;5061863;28;20491;-65
2023/08/02 03:55:53;;;;;;;8.00;5.78;;;;;;;;;;5058650;28;20343;-64
2023/08/02 03:58:18;;;;;;;7.20;5.47;;;;;;;;;;5058297;28;20037;-63
2023/08/02 04:00:43;;;;;;;7.17;5.17;;;;;;;;;;5055946;28;20340;-63
2023/08/02 04:03:08;;;;;;;7.00;5.80;;;;;;;;;;5053863;28;20295;-65
2023/08/02 04:05:33;;;;;;;6.93;5.03;;;;;;;;;;5061312;28;20829;-65
2023/08/02 04:07:59;;;;;;;7.23;5.30;;;;;;;;;;5061805;28;20676;-64
2023/08/02 04:10:24;;;;;;;8.27;4.97;;;;;;;;;;5059625;28;20675;-66
2023/08/02 04:12:53;;;;;;;7.28;5.80;;;;;;;;;;5062122;28;20495;-64
2023/08/02 04:15:18;;;;;;;7.15;5.35;;;;;;;;;;5065813;28;20728;-62
2023/08/02 04:17:43;;;;;;;8.23;5.40;;;;;;;;;;5063287;28;20440;-68
2023/08/02 04:20:09;;;;;;;7.67;5.60;;;;;;;;;;5050971;28;20287;-66
2023/08/02 04:22:34;;;;;;;8.32;5.75;;;;;;;;;;5066942;28;20298;-68
2023/08/02 04:24:59;;;;;;;9.03;5.80;;;;;;;;;;5067511;28;20045;-66
2023/08/02 04:27:24;;;;;;;8.65;5.85;;;;;;;;;;5065452;28;20052;-65
2023/08/02 04:29:49;;;;;;;8.83;5.40;;;;;;;;;;5066831;28;20036;-65
2023/08/02 04:32:15;;;;;;;8.20;5.60;;;;;;;;;;5067280;28;20040;-67
2023/08/02 04:34:40;;;;;;;7.55;5.03;;;;;;;;;;5054328;28;20040;-67
2023/08/02 04:37:05;;;;;;;8.13;5.77;;;;;;;;;;5055881;28;20696;-65
2023/08/02 04:39:30;;;;;;;8.67;5.40;;;;;;;;;;5055980;28;20584;-67
2023/08/02 04:41:57;;;;;;;8.10;5.13;;;;;;;;;;5061416;28;20513;-63
2023/08/02 04:44:22;;;;;;;8.68;5.35;;;;;;;;;;5056752;28;20112;-65
2023/08/02 04:46:48;;;;;;;8.20;5.67;;;;;;;;;;5057850;28;20123;-67
2023/08/02 04:49:13;;;;;;;9.73;5.60;;;;;;;;;;5053335;28;20303;-64
2023/08/02 04:51:38;;;;;;;8.95;5.35;;;;;;;;;;5053048;28;20862;-64
2023/08/02 04:54:04;;;;;;;9.13;5.68;;;;;;;;;;5057096;28;20066;-66
2023/08/02 04:56:30;;;;;;;8.25;5.03;;;;;;;;;;5052378;28;20045;-67
2023/08/02 04:58:55;;;;;;;7.32;5.18;;;;;;;;;;5057751;28;20036;-63
2023/08/02 05:01:20;;;;;;;8.53;4.93;;;;;;;;;;5052457;28;20091;-66
2023/08/02 05:03:45;;;;;;;9.80;5.60;;;;;;;;;;5050012;28;20361;-64
2023/08/02 05:06:11;;;;;;;8.47;5.80;;;;;;;;;;5054993;28;20298;-66
2023/08/02 05:08:36;;;;;;;10.83;6.73;;;;;;;;;;5054153;28;20309;-66
2023/08/02 05:11:03;;;;;;;11.20;6.53;;;;;;;;;;5052549;28;20682;-64
2023/08/02 05:13:29;;;;;;;9.60;6.85;;;;;;;;;;5052698;28;20067;-68
2023/08/02 05:15:54;;;;;;;8.73;6.20;;;;;;;;;;5049788;28;20576;-66
2023/08/02 05:18:19;;;;;;;16.15;6.95;;;;;;;;;;5071518;22;20310;-61
2023/08/02 05:21:40;;;;;;;10.50;6.47;;;;;;;;;;5039926;28;20029;-65
2023/08/02 05:25:00;;;;;;;13.25;5.60;;;;;;;;;;5015110;28;20299;-64
2023/08/02 05:39:11;;;;;;;8.30;5.68;;;;;;;;;;5015530;28;20042;-73
2023/08/02 05:41:37;;;;;;;7.30;5.13;;;;;;;;;;5013784;28;20389;-72
2023/08/02 05:44:02;;;;;;;8.98;6.03;;;;;;;;;;5001996;28;20243;-73
2023/08/02 05:46:28;;;;;;;8.32;6.20;;;;;;;;;;5019638;28;20141;-73
2023/08/02 05:48:54;;;;;;;8.05;6.45;;;;;;;;;;5013594;28;20515;-72
2023/08/02 05:51:19;;;;;;;11.83;6.60;;;;;;;;;;5013974;28;20578;-72
2023/08/02 05:53:44;;;;;;;11.80;7.17;;;;;;;;;;5013832;28;20672;-73
2023/08/02 05:56:09;;;;;;;9.93;7.32;;;;;;;;;;5014877;28;20725;-73
2023/08/02 05:58:35;;;;;;;11.80;8.97;;;;;;;;;;5014947;28;20046;-72
2023/08/02 06:01:00;;;;;;;9.37;7.87;;;;;;;;;;5002863;28;20533;-72
2023/08/02 06:03:25;;;;;;;11.05;6.90;;;;;;;;;;5022108;28;20319;-72
2023/08/02 06:05:51;;;;;;;10.50;7.33;;;;;;;;;;5019494;28;20453;-70
2023/08/02 06:08:16;;;;;;;10.10;6.95;;;;;;;;;;5014562;28;20396;-72
2023/08/02 06:10:41;;;;;;;11.07;7.00;;;;;;;;;;4998780;28;20026;-73
2023/08/02 06:13:07;;;;;;;12.07;6.80;;;;;;;;;;5019931;28;20045;-72
2023/08/02 06:15:32;;;;;;;12.05;7.40;;;;;;;;;;5024260;28;20163;-72
2023/08/02 06:17:57;;;;;;;13.45;7.30;;;;;;;;;;5022157;28;20038;-72
2023/08/02 06:20:22;;;;;;;10.33;7.70;;;;;;;;;;5015774;28;20548;-73
2023/08/02 06:22:48;;;;;;;12.50;7.20;;;;;;;;;;5014741;28;20036;-71
2023/08/02 06:25:13;;;;;;;11.13;7.70;;;;;;;;;;5019849;28;20042;-72
2023/08/02 06:27:38;;;;;;;12.77;7.47;;;;;;;;;;5013971;28;20568;-71
2023/08/02 06:30:04;;;;;;;14.45;7.57;;;;;;;;;;5016662;28;20551;-72
2023/08/02 06:32:29;;;;;;;12.60;8.45;;;;;;;;;;5011706;28;20041;-72
2023/08/02 06:34:54;;;;;;;13.45;8.23;;;;;;;;;;5017697;28;20056;-73
2023/08/02 06:37:19;;;;;;;12.37;8.30;;;;;;;;;;5017217;28;20038;-72
2023/08/02 06:39:45;;;;;;;11.07;7.78;;;;;;;;;;5020205;28;20286;-72
2023/08/02 06:42:10;;;;;;;12.95;7.38;;;;;;;;;;5011935;28;20059;-72
2023/08/02 06:44:35;;;;;;;11.73;7.60;;;;;;;;;;5016194;28;20451;-76
2023/08/02 06:47:00;;;;;;;8.50;6.57;;;;;;;;;;5002101;28;20047;-73
2023/08/02 06:49:26;;;;;;;10.77;7.73;;;;;;;;;;5016340;28;20038;-73
2023/08/02 06:51:51;;;;;;;11.73;7.53;;;;;;;;;;5015956;28;20025;-75
2023/08/02 06:54:16;;;;;;;15.93;8.23;;;;;;;;;;4996846;28;20030;-74
2023/08/02 06:56:42;;;;;;;11.17;7.70;;;;;;;;;;5014479;28;20298;-74
2023/08/02 06:59:07;;;;;;;14.27;7.72;;;;;;;;;;5015065;28;20363;-73
2023/08/02 07:01:32;;;;;;;12.87;7.87;;;;;;;;;;5017809;28;20068;-73
2023/08/02 07:03:57;;;;;;;11.37;7.93;;;;;;;;;;5016182;28;20605;-75
2023/08/02 07:06:23;;;;;;;9.93;7.82;;;;;;;;;;5013538;28;20284;-74
2023/08/02 07:08:49;;;;;;;12.13;7.63;;;;;;;;;;5015203;28;20046;-75
2023/08/02 07:11:14;;;;;;;11.90;7.78;;;;;;;;;;5003432;28;20513;-74
2023/08/02 07:13:43;;;;;;;12.95;8.57;;;;;;;;;;5017260;28;20034;-73
2023/08/02 07:16:08;;;;;;;11.85;8.23;;;;;;;;;;5012068;28;20068;-72
2023/08/02 07:18:33;;;;;;;10.40;8.23;;;;;;;;;;5012435;28;20089;-72
2023/08/02 07:21:17;;;;;;;10.37;8.17;;;;;;;;;;5010747;28;20296;-73
2023/08/02 07:23:42;;;;;;;11.52;8.38;;;;;;;;;;5018346;28;20944;-73
2023/08/02 07:26:09;;;;;;;11.07;8.33;;;;;;;;;;5023100;28;20045;-73
2023/08/02 07:28:34;;;;;;;13.93;7.88;;;;;;;;;;5022980;28;20258;-72
2023/08/02 07:31:10;;;;;;;10.43;7.80;;;;;;;;;;5022873;28;20589;-74
2023/08/02 07:33:35;;;;;;;10.75;8.00;;;;;;;;;;5018114;28;20285;-73
2023/08/02 07:36:01;;;;;;;12.60;8.75;;;;;;;;;;5023701;28;20048;-73
2023/08/02 07:38:26;;;;;;;12.70;8.25;;;;;;;;;;5023311;28;20049;-73
2023/08/02 07:40:52;;;;;;;12.33;8.80;;;;;;;;;;5006737;28;20035;-73
2023/08/02 07:43:17;;;;;;;10.57;8.40;;;;;;;;;;5021482;28;20041;-73
2023/08/02 07:45:42;;;;;;;11.10;8.20;;;;;;;;;;5003946;28;20044;-72
2023/08/02 07:48:08;;;;;;;14.93;9.80;;;;;;;;;;5026806;28;20350;-72
2023/08/02 07:50:33;;;;;;;8.30;7.30;;;;;;;;;;5028608;28;20034;-72
2023/08/02 07:52:58;;;;;;;11.20;7.85;;;;;;;;;;5007593;28;20041;-72
2023/08/02 07:55:24;;;;;;;12.00;8.18;;;;;;;;;;5026676;28;20655;-73
2023/08/02 07:57:49;;;;;;;12.20;9.60;;;;;;;;;;5009298;28;20037;-74
2023/08/02 08:00:14;;;;;;;13.57;8.95;;;;;;;;;;5002875;28;20042;-75
2023/08/02 08:02:40;;;;;;;17.02;10.85;;;;;;;;;;5014230;28;20030;-73
2023/08/02 08:05:06;;;;;;;15.25;10.70;;;;;;;;;;5013779;28;20492;-74
2023/08/02 08:07:31;;;;;;;14.10;9.60;;;;;;;;;;5028846;28;20065;-73
2023/08/02 08:09:56;;;;;;;13.50;9.32;;;;;;;;;;5026043;28;20025;-72
2023/08/02 08:12:22;;;;;;;13.57;9.30;;;;;;;;;;5026984;28;20123;-75
2023/08/02 08:14:47;;;;;;;13.33;10.00;;;;;;;;;;5026499;28;20616;-74
2023/08/02 08:17:12;;;;;;;10.97;9.03;;;;;;;;;;5028555;28;20335;-75
2023/08/02 08:19:37;;;;;;;11.90;7.87;;;;;;;;;;5027246;28;20284;-74
2023/08/02 08:22:04;;;;;;;9.27;8.10;;;;;;;;;;5027968;28;20043;-74
2023/08/02 08:24:29;;;;;;;9.95;8.00;;;;;;;;;;5024020;28;20280;-75
2023/08/02 08:26:57;;;;;;;11.07;8.07;;;;;;;;;;5027771;28;20029;-75
2023/08/02 08:29:23;;;;;;;11.05;8.02;;;;;;;;;;5030460;28;20751;-76
2023/08/02 08:31:48;;;;;;;10.23;7.50;;;;;;;;;;5010264;28;20034;-75
2023/08/02 08:34:13;;;;;;;8.60;7.53;;;;;;;;;;5026645;28;20101;-74
2023/08/02 08:36:39;;;;;;;9.70;7.32;;;;;;;;;;5021057;28;20311;-76
2023/08/02 08:39:04;;;;;;;9.07;7.50;;;;;;;;;;5028847;28;20037;-75
2023/08/02 08:41:29;;;;;;;10.17;7.77;;;;;;;;;;5028097;28;20043;-75
2023/08/02 08:43:55;;;;;;;11.93;7.32;;;;;;;;;;5021442;28;20052;-75
2023/08/02 08:46:20;;;;;;;9.07;7.07;;;;;;;;;;5008697;28;20077;-77
2023/08/02 08:48:45;;;;;;;8.07;7.00;;;;;;;;;;5027557;28;20199;-76
2023/08/02 08:51:11;;;;;;;9.60;7.20;;;;;;;;;;5026991;28;20295;-75
2023/08/02 08:53:37;;;;;;;10.40;8.00;;;;;;;;;;5024884;28;20314;-75
2023/08/02 08:56:03;;;;;;;10.60;7.35;;;;;;;;;;5025304;28;20025;-76
2023/08/02 08:58:29;;;;;;;11.23;6.60;;;;;;;;;;5027116;28;20026;-76
2023/08/02 09:00:54;;;;;;;10.80;6.32;;;;;;;;;;5010504;28;20026;-76
2023/08/02 09:03:19;;;;;;;10.45;6.68;;;;;;;;;;5007607;28;20105;-76
2023/08/02 09:05:45;;;;;;;9.63;6.10;;;;;;;;;;5023503;28;20389;-77
2023/08/02 09:08:10;;;;;;;7.47;5.47;;;;;;;;;;5025202;28;20511;-78
2023/08/02 09:10:35;;;;;;;8.15;5.25;;;;;;;;;;5027458;28;20387;-74
2023/08/02 09:13:00;;;;;;;6.60;5.23;;;;;;;;;;5025837;28;20029;-73
2023/08/02 09:15:26;;;;;;;8.47;5.60;;;;;;;;;;5018955;28;20295;-74
2023/08/02 09:17:51;;;;;;;9.10;5.47;;;;;;;;;;5019236;28;20289;-73
2023/08/02 09:20:17;;;;;;;6.50;4.43;;;;;;;;;;5025460;28;20133;-75
2023/08/02 09:22:43;;;;;;;6.85;4.25;;;;;;;;;;5028242;28;20133;-73
2023/08/02 09:25:10;;;;;;;7.85;4.25;;;;;;;;;;5029896;28;20026;-73
2023/08/02 09:27:35;;;;;;;6.07;4.13;;;;;;;;;;5035008;28;20056;-73
2023/08/02 09:30:00;;;;;;;5.85;4.35;;;;;;;;;;5022581;28;20132;-74
2023/08/02 09:32:26;;;;;;;5.20;4.10;;;;;;;;;;5037023;28;20059;-74
2023/08/02 09:34:52;;;;;;;5.72;4.13;;;;;;;;;;5028655;28;20116;-73
2023/08/02 09:37:27;;;;;;;4.95;3.88;;;;;;;;;;5023604;28;20516;-73
2023/08/02 09:39:52;;;;;;;5.13;4.25;;;;;;;;;;5030469;28;20476;-78
2023/08/02 09:42:21;;;;;;;6.70;4.77;;;;;;;;;;5030114;28;20099;-79
2023/08/02 09:45:05;;;;;;;7.40;5.37;;;;;;;;;;5023327;28;20743;-77
2023/08/02 09:47:30;;;;;;;6.68;5.35;;;;;;;;;;5028754;28;20488;-74
2023/08/02 09:50:05;;;;;;;7.15;5.00;;;;;;;;;;5026004;28;20136;-77
2023/08/02 09:52:30;;;;;;;7.20;4.97;;;;;;;;;;5023963;28;20037;-77
2023/08/02 09:54:55;;;;;;;6.45;4.63;;;;;;;;;;5020796;28;20049;-75
2023/08/02 09:57:24;;;;;;;7.03;4.30;;;;;;;;;;5025712;28;20037;-75
2023/08/02 09:59:50;;;;;;;7.18;4.70;;;;;;;;;;5026715;28;20735;-74
2023/08/02 10:02:15;;;;;;;5.47;4.40;;;;;;;;;;5020449;28;20563;-74
2023/08/02 10:04:40;;;;;;;5.77;4.13;;;;;;;;;;5013259;28;20347;-74
2023/08/02 10:07:06;;;;;;;5.80;4.15;;;;;;;;;;4997049;28;20033;-72
2023/08/02 10:09:33;;;;;;;7.32;4.28;;;;;;;;;;5014692;28;20034;-76
2023/08/02 10:12:07;;;;;;;8.45;4.47;;;;;;;;;;5016707;28;20168;-76
2023/08/02 10:14:32;;;;;;;6.63;4.57;;;;;;;;;;5017021;28;20038;-75
2023/08/02 10:16:58;;;;;;;6.68;4.10;;;;;;;;;;5015752;28;20055;-75
2023/08/02 10:19:23;;;;;;;5.93;4.53;;;;;;;;;;5018412;28;20033;-74
2023/08/02 10:21:48;;;;;;;6.67;4.50;;;;;;;;;;5016933;28;20034;-76
2023/08/02 10:24:14;;;;;;;5.67;4.20;;;;;;;;;;5020491;28;20030;-76
2023/08/02 10:26:39;;;;;;;5.50;4.30;;;;;;;;;;5018013;28;20034;-76
2023/08/02 10:29:04;;;;;;;6.03;4.60;;;;;;;;;;5019064;28;20030;-75
2023/08/02 10:31:29;;;;;;;6.67;4.60;;;;;;;;;;5017235;28;20030;-76
2023/08/02 10:33:55;;;;;;;5.70;3.93;;;;;;;;;;5015058;28;20088;-75
2023/08/02 10:36:20;;;;;;;6.20;4.30;;;;;;;;;;5020042;28;20034;-75
2023/08/02 10:38:46;;;;;;;6.05;4.68;;;;;;;;;;5015090;28;20435;-76
2023/08/02 10:41:13;;;;;;;6.85;4.45;;;;;;;;;;5014532;28;20041;-76
2023/08/02 10:43:53;;;;;;;6.60;4.10;;;;;;;;;;5020083;28;20573;-75
2023/08/02 10:46:21;;;;;;;6.13;3.88;;;;;;;;;;5018771;28;20068;-76
2023/08/02 10:48:46;;;;;;;5.75;4.00;;;;;;;;;;5008770;28;20030;-76
2023/08/02 10:51:26;;;;;;;6.33;4.20;;;;;;;;;;5019030;28;20037;-76
2023/08/02 10:54:11;;;;;;;6.28;4.20;;;;;;;;;;5021508;28;20064;-75
2023/08/02 10:56:52;;;;;;;6.25;3.88;;;;;;;;;;5020393;28;20142;-75
2023/08/02 10:59:24;;;;;;;7.47;4.32;;;;;;;;;;5014942;28;20050;-76
2023/08/02 11:01:56;;;;;;;5.05;4.10;;;;;;;;;;5021740;28;20042;-76
2023/08/02 11:04:21;;;;;;;5.95;4.05;;;;;;;;;;5003629;28;20046;-75
2023/08/02 11:06:47;;;;;;;6.47;4.25;;;;;;;;;;5017648;28;20046;-76
2023/08/02 11:09:12;;;;;;;5.97;4.50;;;;;;;;;;5019760;28;20029;-76
2023/08/02 11:11:38;;;;;;;5.60;3.80;;;;;;;;;;5019464;28;20385;-76
2023/08/02 11:14:03;;;;;;;6.50;4.03;;;;;;;;;;5020432;28;20064;-76
2023/08/02 11:16:29;;;;;;;6.00;4.05;;;;;;;;;;5003844;28;20034;-75
2023/08/02 11:18:54;;;;;;;6.25;4.32;;;;;;;;;;5010412;28;20107;-75
2023/08/02 11:21:19;;;;;;;5.75;4.00;;;;;;;;;;5005004;28;20042;-75
2023/08/02 11:23:49;;;;;;;4.43;3.77;;;;;;;;;;5022544;28;20034;-76
2023/08/02 11:26:14;;;;;;;5.38;4.13;;;;;;;;;;5013583;28;20533;-76
2023/08/02 11:28:48;;;;;;;8.07;4.30;;;;;;;;;;5016116;28;20129;-75
2023/08/02 11:31:13;;;;;;;5.43;4.15;;;;;;;;;;5016056;28;20045;-76
2023/08/02 11:33:38;;;;;;;4.30;3.60;;;;;;;;;;4999145;28;20018;-75
2023/08/02 11:36:04;;;;;;;4.22;3.75;;;;;;;;;;5014793;28;20276;-76
2023/08/02 11:38:29;;;;;;;4.70;3.97;;;;;;;;;;5014425;28;20064;-75
2023/08/02 11:40:55;;;;;;;4.20;3.72;;;;;;;;;;5004191;28;20280;-76
2023/08/02 11:43:32;;;;;;;6.25;3.92;;;;;;;;;;5004361;28;20025;-77
2023/08/02 11:45:57;;;;;;;6.50;4.25;;;;;;;;;;5017277;28;20022;-77
2023/08/02 11:48:24;;;;;;;4.47;4.00;;;;;;;;;;5016317;28;20038;-77
2023/08/02 11:50:49;;;;;;;5.10;3.90;;;;;;;;;;5005723;28;20101;-77
2023/08/02 11:53:14;;;;;;;6.27;3.77;;;;;;;;;;5010258;28;20173;-76
2023/08/02 11:55:40;;;;;;;5.13;3.70;;;;;;;;;;5017217;28;20690;-76
2023/08/02 11:58:05;;;;;;;5.87;3.77;;;;;;;;;;4988651;28;20296;-76
2023/08/02 12:00:32;;;;;;;6.25;4.22;;;;;;;;;;5005189;28;20593;-75
2023/08/02 12:03:06;;;;;;;4.78;4.07;;;;;;;;;;5007883;28;20297;-75
2023/08/02 12:05:31;;;;;;;4.80;3.60;;;;;;;;;;5022064;28;20516;-74
2023/08/02 12:08:06;;;;;;;7.97;3.88;;;;;;;;;;4994630;28;20044;-74
2023/08/02 12:10:32;;;;;;;4.78;3.97;;;;;;;;;;5024942;28;20141;-75
2023/08/02 12:12:59;;;;;;;5.45;3.67;;;;;;;;;;5026024;28;20041;-76
2023/08/02 12:15:24;;;;;;;6.40;3.95;;;;;;;;;;5006653;28;20042;-76
2023/08/02 12:18:16;;;;;;;7.05;3.72;;;;;;;;;;5014166;28;20052;-76
2023/08/02 12:20:41;;;;;;;5.18;3.85;;;;;;;;;;5016553;28;20033;-76
2023/08/02 12:23:06;;;;;;;5.10;3.80;;;;;;;;;;5024242;28;20665;-75
2023/08/02 12:25:44;;;;;;;5.55;3.90;;;;;;;;;;5022485;28;20280;-75
2023/08/02 12:28:10;;;;;;;5.90;3.78;;;;;;;;;;5006114;28;20030;-75
2023/08/02 12:30:35;;;;;;;5.90;4.07;;;;;;;;;;5006043;28;20034;-74
2023/08/02 12:33:01;;;;;;;8.40;3.60;;;;;;;;;;5007404;28;20112;-78
2023/08/02 12:35:26;;;;;;;5.38;3.75;;;;;;;;;;5007689;28;20668;-80
2023/08/02 12:37:51;;;;;;;5.30;3.93;;;;;;;;;;5006650;28;20041;-82
2023/08/02 12:40:17;;;;;;;5.07;3.40;;;;;;;;;;5007195;28;20041;-76
2023/08/02 12:42:42;;;;;;;5.82;3.78;;;;;;;;;;5023974;28;20412;-77
2023/08/02 12:45:07;;;;;;;4.93;3.70;;;;;;;;;;5009425;28;20034;-77
2023/08/02 12:47:32;;;;;;;4.43;3.60;;;;;;;;;;5018469;28;20405;-76
2023/08/02 12:49:58;;;;;;;5.10;3.80;;;;;;;;;;5004749;28;20054;-77
2023/08/02 12:52:23;;;;;;;5.75;3.72;;;;;;;;;;5010605;28;20814;-79
2023/08/02 12:54:48;;;;;;;4.30;3.30;;;;;;;;;;5012221;28;20476;-78
2023/08/02 12:57:14;;;;;;;5.55;3.65;;;;;;;;;;5027689;28;20117;-76
2023/08/02 12:59:39;;;;;;;5.07;3.60;;;;;;;;;;5026544;28;20928;-75
2023/08/02 13:02:04;;;;;;;6.03;3.87;;;;;;;;;;5011373;28;20280;-76
2023/08/02 13:04:30;;;;;;;5.18;3.78;;;;;;;;;;5028709;28;20037;-76
2023/08/02 13:06:57;;;;;;;5.37;3.67;;;;;;;;;;5028626;28;20155;-77
2023/08/02 13:09:22;;;;;;;4.38;3.65;;;;;;;;;;5012012;28;20075;-84
2023/08/02 13:11:48;;;;;;;5.40;3.92;;;;;;;;;;4994221;28;20065;-81
2023/08/02 13:14:13;;;;;;;4.93;3.57;;;;;;;;;;4997915;28;20045;-83
2023/08/02 13:16:38;;;;;;;6.13;3.70;;;;;;;;;;5027670;28;20041;-77
2023/08/02 13:19:03;;;;;;;3.77;3.23;;;;;;;;;;5026609;28;20244;-78
2023/08/02 13:21:29;;;;;;;5.60;3.37;;;;;;;;;;4995193;28;20097;-80
2023/08/02 13:23:54;;;;;;;4.60;3.37;;;;;;;;;;5008973;28;20058;-77
2023/08/02 13:26:19;;;;;;;4.37;3.47;;;;;;;;;;5023592;28;20551;-72
2023/08/02 13:28:44;;;;;;;4.10;3.60;;;;;;;;;;4993695;28;20520;-87
2023/08/02 13:31:09;;;;;;;4.82;3.75;;;;;;;;;;5020450;28;20068;-78
2023/08/02 13:33:35;;;;;;;4.83;3.93;;;;;;;;;;5027707;28;20033;-80
2023/08/02 13:36:00;;;;;;;7.07;3.70;;;;;;;;;;5028112;28;20500;-78
2023/08/02 13:38:25;;;;;;;6.10;3.50;;;;;;;;;;5023636;28;20056;-80
2023/08/02 13:40:51;;;;;;;5.93;3.77;;;;;;;;;;5026522;28;20567;-81
2023/08/02 13:43:16;;;;;;;5.18;3.60;;;;;;;;;;5027218;28;20515;-79
2023/08/02 13:45:41;;;;;;;5.63;3.77;;;;;;;;;;5025583;28;20048;-78
2023/08/02 13:48:06;;;;;;;4.27;3.60;;;;;;;;;;5022246;28;20318;-79
2023/08/02 13:50:32;;;;;;;4.60;3.67;;;;;;;;;;5026629;28;20034;-76
2023/08/02 13:52:58;;;;;;;4.55;3.88;;;;;;;;;;5027691;28;20733;-74
2023/08/02 13:55:23;;;;;;;4.60;3.60;;;;;;;;;;5027136;28;20044;-78
2023/08/02 13:57:48;;;;;;;6.33;3.87;;;;;;;;;;5026056;28;20068;-78
2023/08/02 14:00:13;;;;;;;5.43;3.67;;;;;;;;;;5008127;28;20045;-76
2023/08/02 14:02:39;;;;;;;4.90;3.70;;;;;;;;;;5018683;28;20893;-75
2023/08/02 14:05:04;;;;;;;4.00;3.50;;;;;;;;;;5027726;28;20084;-81
2023/08/02 14:07:29;;;;;;;4.28;3.53;;;;;;;;;;5026882;28;20128;-77
2023/08/02 14:09:54;;;;;;;5.17;3.73;;;;;;;;;;5010020;28;20048;-76
2023/08/02 14:12:19;;;;;;;5.03;3.57;;;;;;;;;;5021111;28;20512;-76
2023/08/02 14:14:45;;;;;;;6.33;3.67;;;;;;;;;;5026016;28;20519;-78
2023/08/02 14:17:10;;;;;;;5.93;4.13;;;;;;;;;;5029573;28;20299;-76
2023/08/02 14:19:35;;;;;;;5.57;3.53;;;;;;;;;;5020728;28;20045;-78
2023/08/02 14:22:00;;;;;;;6.60;3.70;;;;;;;;;;4994799;28;20046;-79
2023/08/02 14:24:26;;;;;;;4.97;3.97;;;;;;;;;;4990069;28;21161;-78
2023/08/02 14:26:51;;;;;;;5.43;3.77;;;;;;;;;;5013041;28;20467;-78
2023/08/02 14:29:16;;;;;;;6.07;3.83;;;;;;;;;;5008071;28;20311;-75
2023/08/02 14:31:42;;;;;;;5.03;3.67;;;;;;;;;;5013024;28;20121;-75
2023/08/02 14:34:07;;;;;;;4.93;3.78;;;;;;;;;;5017463;28;20375;-77
2023/08/02 14:36:32;;;;;;;5.93;3.90;;;;;;;;;;5017012;28;20599;-76
2023/08/02 14:38:57;;;;;;;4.63;3.80;;;;;;;;;;5000380;28;20038;-82
2023/08/02 14:41:22;;;;;;;4.57;3.65;;;;;;;;;;5020423;28;20384;-76
2023/08/02 14:43:48;;;;;;;5.50;3.60;;;;;;;;;;5000914;28;20121;-76
2023/08/02 14:46:13;;;;;;;4.67;3.70;;;;;;;;;;5017029;28;20108;-79